sensor_id;sensor_type;location;lat;lon;timestamp;P1;durP1;ratioP1;P2;durP2;ratioP2
40787;SDS011;26497;52.494;7.546;2023-02-15T00:00:03;78.38;;;27.77;;
40787;SDS011;26497;52.494;7.546;2023-02-15T00:02:33;85.82;;;29.00;;
40787;SDS011;26497;52.494;7.546;2023-02-15T00:05:01;71.80;;;28.05;;
40787;SDS011;26497;52.494;7.546;2023-02-15T00:07:29;82.97;;;29.20;;
40787;SDS011;26497;52.494;7.546;2023-02-15T00:09:56;75.75;;;26.55;;
40787;SDS011;26497;52.494;7.546;2023-02-15T00:12:23;75.70;;;27.75;;
40787;SDS011;26497;52.494;7.546;2023-02-15T00:14:50;81.70;;;28.77;;
40787;SDS011;26497;52.494;7.546;2023-02-15T00:17:17;60.70;;;26.60;;
40787;SDS011;26497;52.494;7.546;2023-02-15T00:19:44;78.00;;;27.50;;
40787;SDS011;26497;52.494;7.546;2023-02-15T00:22:12;61.28;;;24.13;;
40787;SDS011;26497;52.494;7.546;2023-02-15T00:24:39;69.88;;;25.48;;
40787;SDS011;26497;52.494;7.546;2023-02-15T00:27:06;83.65;;;27.08;;
40787;SDS011;26497;52.494;7.546;2023-02-15T00:29:34;93.70;;;27.25;;
40787;SDS011;26497;52.494;7.546;2023-02-15T00:32:01;157.18;;;30.98;;
40787;SDS011;26497;52.494;7.546;2023-02-15T00:34:28;158.02;;;29.10;;
40787;SDS011;26497;52.494;7.546;2023-02-15T00:36:55;100.93;;;25.63;;
40787;SDS011;26497;52.494;7.546;2023-02-15T00:39:23;218.00;;;33.42;;
40787;SDS011;26497;52.494;7.546;2023-02-15T00:41:52;221.85;;;34.50;;
40787;SDS011;26497;52.494;7.546;2023-02-15T00:44:19;55.72;;;21.38;;
40787;SDS011;26497;52.494;7.546;2023-02-15T00:46:47;198.70;;;29.13;;
40787;SDS011;26497;52.494;7.546;2023-02-15T00:49:15;115.18;;;24.42;;
40787;SDS011;26497;52.494;7.546;2023-02-15T00:51:51;52.90;;;19.88;;
40787;SDS011;26497;52.494;7.546;2023-02-15T00:54:19;62.22;;;21.88;;
40787;SDS011;26497;52.494;7.546;2023-02-15T00:56:47;111.95;;;24.52;;
40787;SDS011;26497;52.494;7.546;2023-02-15T01:01:45;54.22;;;21.35;;
40787;SDS011;26497;52.494;7.546;2023-02-15T01:04:12;65.30;;;23.48;;
40787;SDS011;26497;52.494;7.546;2023-02-15T01:06:39;58.78;;;24.08;;
40787;SDS011;26497;52.494;7.546;2023-02-15T01:09:07;79.35;;;25.83;;
40787;SDS011;26497;52.494;7.546;2023-02-15T01:11:34;102.53;;;26.33;;
40787;SDS011;26497;52.494;7.546;2023-02-15T01:14:03;95.80;;;28.20;;
40787;SDS011;26497;52.494;7.546;2023-02-15T01:16:30;69.45;;;25.40;;
40787;SDS011;26497;52.494;7.546;2023-02-15T01:18:58;64.75;;;23.38;;
40787;SDS011;26497;52.494;7.546;2023-02-15T01:21:28;53.38;;;21.45;;
40787;SDS011;26497;52.494;7.546;2023-02-15T01:23:59;61.47;;;23.02;;
40787;SDS011;26497;52.494;7.546;2023-02-15T01:26:26;52.17;;;21.50;;
40787;SDS011;26497;52.494;7.546;2023-02-15T01:28:53;45.17;;;20.02;;
40787;SDS011;26497;52.494;7.546;2023-02-15T01:31:25;49.00;;;20.58;;
40787;SDS011;26497;52.494;7.546;2023-02-15T01:33:53;50.45;;;19.90;;
40787;SDS011;26497;52.494;7.546;2023-02-15T01:36:20;50.60;;;20.00;;
40787;SDS011;26497;52.494;7.546;2023-02-15T01:38:47;53.05;;;20.17;;
40787;SDS011;26497;52.494;7.546;2023-02-15T01:41:14;42.20;;;17.38;;
40787;SDS011;26497;52.494;7.546;2023-02-15T01:43:49;54.47;;;19.90;;
40787;SDS011;26497;52.494;7.546;2023-02-15T01:46:20;55.92;;;20.25;;
40787;SDS011;26497;52.494;7.546;2023-02-15T01:48:54;42.38;;;20.15;;
40787;SDS011;26497;52.494;7.546;2023-02-15T01:51:27;46.75;;;19.50;;
40787;SDS011;26497;52.494;7.546;2023-02-15T01:53:59;47.63;;;19.02;;
40787;SDS011;26497;52.494;7.546;2023-02-15T01:56:32;51.78;;;19.83;;
40787;SDS011;26497;52.494;7.546;2023-02-15T01:59:05;47.88;;;19.75;;
40787;SDS011;26497;52.494;7.546;2023-02-15T02:01:36;44.60;;;19.17;;
40787;SDS011;26497;52.494;7.546;2023-02-15T02:04:05;42.13;;;17.98;;
40787;SDS011;26497;52.494;7.546;2023-02-15T02:06:39;41.20;;;16.48;;
40787;SDS011;26497;52.494;7.546;2023-02-15T02:09:07;44.55;;;19.17;;
40787;SDS011;26497;52.494;7.546;2023-02-15T02:11:35;44.65;;;18.63;;
40787;SDS011;26497;52.494;7.546;2023-02-15T02:14:02;64.57;;;19.65;;
40787;SDS011;26497;52.494;7.546;2023-02-15T02:16:31;59.83;;;20.38;;
40787;SDS011;26497;52.494;7.546;2023-02-15T02:19:19;53.80;;;19.02;;
40787;SDS011;26497;52.494;7.546;2023-02-15T02:22:39;48.08;;;18.67;;
40787;SDS011;26497;52.494;7.546;2023-02-15T02:29:28;48.95;;;18.85;;
40787;SDS011;26497;52.494;7.546;2023-02-15T02:35:30;51.53;;;19.85;;
40787;SDS011;26497;52.494;7.546;2023-02-15T02:38:03;53.95;;;20.65;;
40787;SDS011;26497;52.494;7.546;2023-02-15T02:40:40;45.25;;;20.38;;
40787;SDS011;26497;52.494;7.546;2023-02-15T02:43:20;59.37;;;17.97;;
40787;SDS011;26497;52.494;7.546;2023-02-15T02:45:56;43.10;;;19.42;;
40787;SDS011;26497;52.494;7.546;2023-02-15T02:48:31;43.72;;;18.00;;
40787;SDS011;26497;52.494;7.546;2023-02-15T02:51:00;40.63;;;17.40;;
40787;SDS011;26497;52.494;7.546;2023-02-15T02:53:27;57.97;;;19.48;;
40787;SDS011;26497;52.494;7.546;2023-02-15T02:55:58;61.33;;;20.63;;
40787;SDS011;26497;52.494;7.546;2023-02-15T02:58:33;55.50;;;20.65;;
40787;SDS011;26497;52.494;7.546;2023-02-15T03:01:08;51.50;;;19.67;;
40787;SDS011;26497;52.494;7.546;2023-02-15T03:03:43;54.30;;;21.63;;
40787;SDS011;26497;52.494;7.546;2023-02-15T03:06:16;44.35;;;18.58;;
40787;SDS011;26497;52.494;7.546;2023-02-15T03:08:54;49.17;;;17.95;;
40787;SDS011;26497;52.494;7.546;2023-02-15T03:11:30;43.88;;;17.02;;
40787;SDS011;26497;52.494;7.546;2023-02-15T03:13:58;62.50;;;19.88;;
40787;SDS011;26497;52.494;7.546;2023-02-15T03:16:25;53.05;;;19.05;;
40787;SDS011;26497;52.494;7.546;2023-02-15T03:18:55;45.95;;;18.77;;
40787;SDS011;26497;52.494;7.546;2023-02-15T03:21:30;48.85;;;18.80;;
40787;SDS011;26497;52.494;7.546;2023-02-15T03:24:04;43.67;;;17.83;;
40787;SDS011;26497;52.494;7.546;2023-02-15T03:26:36;45.40;;;18.27;;
40787;SDS011;26497;52.494;7.546;2023-02-15T03:29:05;53.75;;;19.65;;
40787;SDS011;26497;52.494;7.546;2023-02-15T03:31:37;51.92;;;20.92;;
40787;SDS011;26497;52.494;7.546;2023-02-15T03:34:10;63.08;;;21.23;;
40787;SDS011;26497;52.494;7.546;2023-02-15T03:39:13;70.30;;;21.08;;
40787;SDS011;26497;52.494;7.546;2023-02-15T03:41:48;42.10;;;16.70;;
40787;SDS011;26497;52.494;7.546;2023-02-15T03:44:24;52.03;;;19.00;;
40787;SDS011;26497;52.494;7.546;2023-02-15T03:46:57;72.15;;;21.88;;
40787;SDS011;26497;52.494;7.546;2023-02-15T03:49:32;63.47;;;22.23;;
40787;SDS011;26497;52.494;7.546;2023-02-15T03:52:07;63.92;;;22.00;;
40787;SDS011;26497;52.494;7.546;2023-02-15T03:54:36;57.95;;;21.25;;
40787;SDS011;26497;52.494;7.546;2023-02-15T03:57:09;70.38;;;22.88;;
40787;SDS011;26497;52.494;7.546;2023-02-15T03:59:57;50.10;;;19.83;;
40787;SDS011;26497;52.494;7.546;2023-02-15T04:02:47;63.38;;;23.98;;
40787;SDS011;26497;52.494;7.546;2023-02-15T04:05:40;57.38;;;23.33;;
40787;SDS011;26497;52.494;7.546;2023-02-15T04:08:08;77.18;;;21.17;;
40787;SDS011;26497;52.494;7.546;2023-02-15T04:10:36;66.05;;;24.85;;
40787;SDS011;26497;52.494;7.546;2023-02-15T04:13:18;66.85;;;22.45;;
40787;SDS011;26497;52.494;7.546;2023-02-15T04:15:45;64.03;;;22.02;;
40787;SDS011;26497;52.494;7.546;2023-02-15T04:18:30;61.92;;;23.40;;
40787;SDS011;26497;52.494;7.546;2023-02-15T04:21:17;70.80;;;23.42;;
40787;SDS011;26497;52.494;7.546;2023-02-15T04:24:04;83.40;;;22.60;;
40787;SDS011;26497;52.494;7.546;2023-02-15T04:26:49;52.47;;;18.42;;
40787;SDS011;26497;52.494;7.546;2023-02-15T04:29:26;43.15;;;17.83;;
40787;SDS011;26497;52.494;7.546;2023-02-15T04:31:54;52.83;;;18.48;;
40787;SDS011;26497;52.494;7.546;2023-02-15T04:34:23;44.38;;;17.98;;
40787;SDS011;26497;52.494;7.546;2023-02-15T04:36:52;40.28;;;17.13;;
40787;SDS011;26497;52.494;7.546;2023-02-15T04:39:19;36.05;;;17.67;;
40787;SDS011;26497;52.494;7.546;2023-02-15T04:41:46;44.78;;;18.40;;
40787;SDS011;26497;52.494;7.546;2023-02-15T04:44:13;43.85;;;17.25;;
40787;SDS011;26497;52.494;7.546;2023-02-15T04:46:41;45.88;;;19.73;;
40787;SDS011;26497;52.494;7.546;2023-02-15T04:49:08;52.90;;;20.77;;
40787;SDS011;26497;52.494;7.546;2023-02-15T04:51:35;44.20;;;18.63;;
40787;SDS011;26497;52.494;7.546;2023-02-15T04:54:04;43.85;;;17.77;;
40787;SDS011;26497;52.494;7.546;2023-02-15T04:56:31;46.85;;;18.40;;
40787;SDS011;26497;52.494;7.546;2023-02-15T04:58:59;50.03;;;20.20;;
40787;SDS011;26497;52.494;7.546;2023-02-15T05:01:27;52.03;;;20.17;;
40787;SDS011;26497;52.494;7.546;2023-02-15T05:03:54;71.93;;;24.92;;
40787;SDS011;26497;52.494;7.546;2023-02-15T05:06:21;81.57;;;26.27;;
40787;SDS011;26497;52.494;7.546;2023-02-15T05:08:48;66.68;;;23.92;;
40787;SDS011;26497;52.494;7.546;2023-02-15T05:11:17;62.78;;;25.13;;
40787;SDS011;26497;52.494;7.546;2023-02-15T05:13:44;61.50;;;22.90;;
40787;SDS011;26497;52.494;7.546;2023-02-15T05:16:11;64.80;;;22.83;;
40787;SDS011;26497;52.494;7.546;2023-02-15T05:18:38;53.22;;;22.30;;
40787;SDS011;26497;52.494;7.546;2023-02-15T05:21:05;56.35;;;22.08;;
40787;SDS011;26497;52.494;7.546;2023-02-15T05:23:32;52.08;;;19.83;;
40787;SDS011;26497;52.494;7.546;2023-02-15T05:25:59;59.97;;;23.90;;
40787;SDS011;26497;52.494;7.546;2023-02-15T05:28:46;64.43;;;22.15;;
40787;SDS011;26497;52.494;7.546;2023-02-15T05:31:13;50.97;;;21.63;;
40787;SDS011;26497;52.494;7.546;2023-02-15T05:33:43;62.15;;;19.90;;
40787;SDS011;26497;52.494;7.546;2023-02-15T05:36:10;52.17;;;22.08;;
40787;SDS011;26497;52.494;7.546;2023-02-15T05:38:38;51.90;;;23.33;;
40787;SDS011;26497;52.494;7.546;2023-02-15T05:41:05;53.33;;;21.10;;
40787;SDS011;26497;52.494;7.546;2023-02-15T05:43:33;50.03;;;21.05;;
40787;SDS011;26497;52.494;7.546;2023-02-15T05:46:01;58.03;;;19.73;;
40787;SDS011;26497;52.494;7.546;2023-02-15T05:48:29;57.65;;;21.35;;
40787;SDS011;26497;52.494;7.546;2023-02-15T05:50:58;58.47;;;22.58;;
40787;SDS011;26497;52.494;7.546;2023-02-15T05:53:27;59.40;;;23.70;;
40787;SDS011;26497;52.494;7.546;2023-02-15T05:55:55;56.78;;;22.98;;
40787;SDS011;26497;52.494;7.546;2023-02-15T05:58:25;96.22;;;26.27;;
40787;SDS011;26497;52.494;7.546;2023-02-15T06:00:53;61.72;;;19.08;;
40787;SDS011;26497;52.494;7.546;2023-02-15T06:03:22;50.55;;;20.45;;
40787;SDS011;26497;52.494;7.546;2023-02-15T06:05:53;53.17;;;19.00;;
40787;SDS011;26497;52.494;7.546;2023-02-15T06:08:20;54.38;;;20.15;;
40787;SDS011;26497;52.494;7.546;2023-02-15T06:10:47;69.25;;;18.83;;
40787;SDS011;26497;52.494;7.546;2023-02-15T06:13:14;48.42;;;16.45;;
40787;SDS011;26497;52.494;7.546;2023-02-15T06:15:41;29.65;;;13.90;;
40787;SDS011;26497;52.494;7.546;2023-02-15T06:18:08;29.05;;;13.40;;
40787;SDS011;26497;52.494;7.546;2023-02-15T06:20:37;23.92;;;12.20;;
40787;SDS011;26497;52.494;7.546;2023-02-15T06:23:04;28.02;;;13.57;;
40787;SDS011;26497;52.494;7.546;2023-02-15T06:25:31;26.73;;;12.48;;
40787;SDS011;26497;52.494;7.546;2023-02-15T06:27:58;25.55;;;12.13;;
40787;SDS011;26497;52.494;7.546;2023-02-15T06:30:25;28.02;;;13.05;;
40787;SDS011;26497;52.494;7.546;2023-02-15T06:32:52;25.45;;;12.23;;
40787;SDS011;26497;52.494;7.546;2023-02-15T06:35:19;31.10;;;13.40;;
40787;SDS011;26497;52.494;7.546;2023-02-15T06:37:48;23.10;;;11.85;;
40787;SDS011;26497;52.494;7.546;2023-02-15T06:40:15;25.00;;;11.82;;
40787;SDS011;26497;52.494;7.546;2023-02-15T06:42:43;33.45;;;14.10;;
40787;SDS011;26497;52.494;7.546;2023-02-15T06:45:10;32.58;;;14.98;;
40787;SDS011;26497;52.494;7.546;2023-02-15T06:47:37;34.83;;;14.38;;
40787;SDS011;26497;52.494;7.546;2023-02-15T06:50:05;37.25;;;16.45;;
40787;SDS011;26497;52.494;7.546;2023-02-15T06:52:34;37.95;;;16.40;;
40787;SDS011;26497;52.494;7.546;2023-02-15T06:55:02;47.45;;;17.60;;
40787;SDS011;26497;52.494;7.546;2023-02-15T06:57:31;41.05;;;16.48;;
40787;SDS011;26497;52.494;7.546;2023-02-15T06:59:58;43.25;;;17.10;;
40787;SDS011;26497;52.494;7.546;2023-02-15T07:02:26;40.70;;;17.50;;
40787;SDS011;26497;52.494;7.546;2023-02-15T07:04:53;40.30;;;18.02;;
40787;SDS011;26497;52.494;7.546;2023-02-15T07:07:20;52.08;;;20.10;;
40787;SDS011;26497;52.494;7.546;2023-02-15T07:09:47;46.20;;;19.45;;
40787;SDS011;26497;52.494;7.546;2023-02-15T07:12:15;60.17;;;21.17;;
40787;SDS011;26497;52.494;7.546;2023-02-15T07:15:00;58.33;;;20.83;;
40787;SDS011;26497;52.494;7.546;2023-02-15T07:17:29;50.22;;;19.15;;
40787;SDS011;26497;52.494;7.546;2023-02-15T07:19:56;65.13;;;24.17;;
40787;SDS011;26497;52.494;7.546;2023-02-15T07:22:23;58.80;;;23.27;;
40787;SDS011;26497;52.494;7.546;2023-02-15T07:24:50;59.53;;;24.15;;
40787;SDS011;26497;52.494;7.546;2023-02-15T07:27:20;71.18;;;24.65;;
40787;SDS011;26497;52.494;7.546;2023-02-15T07:29:47;67.78;;;24.75;;
40787;SDS011;26497;52.494;7.546;2023-02-15T07:32:14;70.03;;;25.67;;
40787;SDS011;26497;52.494;7.546;2023-02-15T07:34:41;73.43;;;26.08;;
40787;SDS011;26497;52.494;7.546;2023-02-15T07:37:09;66.53;;;24.75;;
40787;SDS011;26497;52.494;7.546;2023-02-15T07:39:36;69.43;;;24.60;;
40787;SDS011;26497;52.494;7.546;2023-02-15T07:42:03;63.30;;;24.70;;
40787;SDS011;26497;52.494;7.546;2023-02-15T07:44:31;92.85;;;31.38;;
40787;SDS011;26497;52.494;7.546;2023-02-15T07:46:58;71.50;;;29.13;;
40787;SDS011;26497;52.494;7.546;2023-02-15T07:49:25;84.22;;;30.17;;
40787;SDS011;26497;52.494;7.546;2023-02-15T07:51:53;87.40;;;32.38;;
40787;SDS011;26497;52.494;7.546;2023-02-15T07:54:20;78.00;;;30.45;;
40787;SDS011;26497;52.494;7.546;2023-02-15T07:56:47;96.85;;;31.50;;
40787;SDS011;26497;52.494;7.546;2023-02-15T07:59:14;79.25;;;28.15;;
40787;SDS011;26497;52.494;7.546;2023-02-15T08:01:42;82.85;;;30.67;;
40787;SDS011;26497;52.494;7.546;2023-02-15T08:04:09;69.78;;;28.02;;
40787;SDS011;26497;52.494;7.546;2023-02-15T08:06:37;71.30;;;27.77;;
40787;SDS011;26497;52.494;7.546;2023-02-15T08:09:04;71.05;;;28.05;;
40787;SDS011;26497;52.494;7.546;2023-02-15T08:11:33;84.03;;;29.05;;
40787;SDS011;26497;52.494;7.546;2023-02-15T08:14:05;72.00;;;26.90;;
40787;SDS011;26497;52.494;7.546;2023-02-15T08:16:35;79.63;;;29.63;;
40787;SDS011;26497;52.494;7.546;2023-02-15T08:19:09;70.97;;;26.50;;
40787;SDS011;26497;52.494;7.546;2023-02-15T08:21:38;90.60;;;31.80;;
40787;SDS011;26497;52.494;7.546;2023-02-15T08:24:08;78.80;;;27.98;;
40787;SDS011;26497;52.494;7.546;2023-02-15T08:26:38;94.85;;;29.00;;
40787;SDS011;26497;52.494;7.546;2023-02-15T08:29:06;84.45;;;29.23;;
40787;SDS011;26497;52.494;7.546;2023-02-15T08:31:35;88.05;;;29.33;;
40787;SDS011;26497;52.494;7.546;2023-02-15T08:34:02;81.40;;;31.23;;
40787;SDS011;26497;52.494;7.546;2023-02-15T08:36:32;105.30;;;34.10;;
40787;SDS011;26497;52.494;7.546;2023-02-15T08:39:01;92.55;;;32.88;;
40787;SDS011;26497;52.494;7.546;2023-02-15T08:41:31;85.82;;;32.28;;
40787;SDS011;26497;52.494;7.546;2023-02-15T08:44:01;105.18;;;33.05;;
40787;SDS011;26497;52.494;7.546;2023-02-15T08:46:31;103.82;;;34.90;;
40787;SDS011;26497;52.494;7.546;2023-02-15T08:49:00;103.93;;;33.58;;
40787;SDS011;26497;52.494;7.546;2023-02-15T08:51:28;82.57;;;31.83;;
40787;SDS011;26497;52.494;7.546;2023-02-15T08:53:59;104.47;;;34.72;;
40787;SDS011;26497;52.494;7.546;2023-02-15T08:59:00;88.78;;;31.33;;
40787;SDS011;26497;52.494;7.546;2023-02-15T09:01:30;103.20;;;36.72;;
40787;SDS011;26497;52.494;7.546;2023-02-15T09:04:00;96.70;;;35.20;;
40787;SDS011;26497;52.494;7.546;2023-02-15T09:06:29;97.80;;;34.80;;
40787;SDS011;26497;52.494;7.546;2023-02-15T09:08:56;109.18;;;38.70;;
40787;SDS011;26497;52.494;7.546;2023-02-15T09:11:25;99.18;;;37.60;;
40787;SDS011;26497;52.494;7.546;2023-02-15T09:13:54;120.95;;;39.03;;
40787;SDS011;26497;52.494;7.546;2023-02-15T09:16:24;107.72;;;39.47;;
40787;SDS011;26497;52.494;7.546;2023-02-15T09:18:53;104.07;;;42.58;;
40787;SDS011;26497;52.494;7.546;2023-02-15T09:21:22;117.05;;;37.42;;
40787;SDS011;26497;52.494;7.546;2023-02-15T09:23:55;107.88;;;39.88;;
40787;SDS011;26497;52.494;7.546;2023-02-15T09:26:26;94.82;;;35.92;;
40787;SDS011;26497;52.494;7.546;2023-02-15T09:28:55;79.82;;;34.42;;
40787;SDS011;26497;52.494;7.546;2023-02-15T09:31:26;71.37;;;31.77;;
40787;SDS011;26497;52.494;7.546;2023-02-15T09:33:55;59.65;;;28.45;;
40787;SDS011;26497;52.494;7.546;2023-02-15T09:36:26;49.70;;;25.33;;
40787;SDS011;26497;52.494;7.546;2023-02-15T09:38:57;45.33;;;24.17;;
40787;SDS011;26497;52.494;7.546;2023-02-15T09:44:12;39.50;;;21.52;;
40787;SDS011;26497;52.494;7.546;2023-02-15T09:46:55;36.08;;;20.25;;
40787;SDS011;26497;52.494;7.546;2023-02-15T09:49:51;42.15;;;19.52;;
40787;SDS011;26497;52.494;7.546;2023-02-15T09:52:30;38.35;;;20.20;;
40787;SDS011;26497;52.494;7.546;2023-02-15T09:55:19;37.92;;;18.60;;
40787;SDS011;26497;52.494;7.546;2023-02-15T09:58:04;32.35;;;17.55;;
40787;SDS011;26497;52.494;7.546;2023-02-15T10:00:47;27.05;;;15.63;;
40787;SDS011;26497;52.494;7.546;2023-02-15T10:03:29;31.23;;;14.82;;
40787;SDS011;26497;52.494;7.546;2023-02-15T10:06:25;31.70;;;14.90;;
40787;SDS011;26497;52.494;7.546;2023-02-15T10:15:12;25.05;;;14.88;;
40787;SDS011;26497;52.494;7.546;2023-02-15T10:17:57;34.88;;;17.92;;
40787;SDS011;26497;52.494;7.546;2023-02-15T10:20:58;26.63;;;14.77;;
40787;SDS011;26497;52.494;7.546;2023-02-15T10:23:41;27.90;;;14.57;;
40787;SDS011;26497;52.494;7.546;2023-02-15T10:26:30;26.58;;;13.93;;
40787;SDS011;26497;52.494;7.546;2023-02-15T10:29:07;28.42;;;15.20;;
40787;SDS011;26497;52.494;7.546;2023-02-15T10:31:45;34.67;;;16.13;;
40787;SDS011;26497;52.494;7.546;2023-02-15T10:34:18;25.60;;;15.73;;
40787;SDS011;26497;52.494;7.546;2023-02-15T10:37:02;26.73;;;15.60;;
40787;SDS011;26497;52.494;7.546;2023-02-15T10:39:47;25.20;;;15.32;;
40787;SDS011;26497;52.494;7.546;2023-02-15T10:45:04;29.77;;;14.73;;
40787;SDS011;26497;52.494;7.546;2023-02-15T10:47:50;23.45;;;14.80;;
40787;SDS011;26497;52.494;7.546;2023-02-15T10:50:43;29.80;;;16.55;;
40787;SDS011;26497;52.494;7.546;2023-02-15T10:53:31;30.20;;;17.83;;
40787;SDS011;26497;52.494;7.546;2023-02-15T10:56:16;28.83;;;16.60;;
40787;SDS011;26497;52.494;7.546;2023-02-15T10:58:58;36.08;;;18.55;;
40787;SDS011;26497;52.494;7.546;2023-02-15T11:01:49;34.05;;;18.83;;
40787;SDS011;26497;52.494;7.546;2023-02-15T11:04:36;28.17;;;17.08;;
40787;SDS011;26497;52.494;7.546;2023-02-15T11:07:26;28.38;;;15.73;;
40787;SDS011;26497;52.494;7.546;2023-02-15T11:10:01;30.13;;;16.25;;
40787;SDS011;26497;52.494;7.546;2023-02-15T11:12:48;27.67;;;16.98;;
40787;SDS011;26497;52.494;7.546;2023-02-15T11:15:17;28.63;;;17.10;;
40787;SDS011;26497;52.494;7.546;2023-02-15T11:17:52;33.40;;;16.77;;
40787;SDS011;26497;52.494;7.546;2023-02-15T11:20:29;34.08;;;17.15;;
40787;SDS011;26497;52.494;7.546;2023-02-15T11:23:01;32.65;;;18.45;;
40787;SDS011;26497;52.494;7.546;2023-02-15T11:25:29;27.55;;;18.65;;
40787;SDS011;26497;52.494;7.546;2023-02-15T11:27:59;34.78;;;16.90;;
40787;SDS011;26497;52.494;7.546;2023-02-15T11:30:33;33.75;;;17.48;;
40787;SDS011;26497;52.494;7.546;2023-02-15T11:33:12;25.90;;;16.52;;
40787;SDS011;26497;52.494;7.546;2023-02-15T11:35:48;34.15;;;18.77;;
40787;SDS011;26497;52.494;7.546;2023-02-15T11:38:20;30.20;;;17.55;;
40787;SDS011;26497;52.494;7.546;2023-02-15T11:40:51;33.05;;;17.35;;
40787;SDS011;26497;52.494;7.546;2023-02-15T11:43:24;35.40;;;19.60;;
40787;SDS011;26497;52.494;7.546;2023-02-15T11:45:59;33.83;;;17.70;;
40787;SDS011;26497;52.494;7.546;2023-02-15T11:48:26;31.25;;;17.67;;
40787;SDS011;26497;52.494;7.546;2023-02-15T11:53:26;36.58;;;18.42;;
40787;SDS011;26497;52.494;7.546;2023-02-15T11:55:58;34.58;;;18.00;;
40787;SDS011;26497;52.494;7.546;2023-02-15T11:58:28;37.58;;;19.85;;
40787;SDS011;26497;52.494;7.546;2023-02-15T12:01:05;34.58;;;19.42;;
40787;SDS011;26497;52.494;7.546;2023-02-15T12:03:43;40.50;;;20.30;;
40787;SDS011;26497;52.494;7.546;2023-02-15T12:06:25;45.80;;;21.27;;
40787;SDS011;26497;52.494;7.546;2023-02-15T12:08:57;34.90;;;20.33;;
40787;SDS011;26497;52.494;7.546;2023-02-15T12:11:32;43.25;;;20.48;;
40787;SDS011;26497;52.494;7.546;2023-02-15T12:14:03;40.22;;;19.83;;
40787;SDS011;26497;52.494;7.546;2023-02-15T12:16:33;34.78;;;18.75;;
40787;SDS011;26497;52.494;7.546;2023-02-15T12:19:12;40.00;;;20.60;;
40787;SDS011;26497;52.494;7.546;2023-02-15T12:22:01;40.90;;;18.90;;
40787;SDS011;26497;52.494;7.546;2023-02-15T12:24:30;37.85;;;22.27;;
40787;SDS011;26497;52.494;7.546;2023-02-15T12:27:04;35.78;;;18.55;;
40787;SDS011;26497;52.494;7.546;2023-02-15T12:29:41;32.72;;;17.63;;
40787;SDS011;26497;52.494;7.546;2023-02-15T12:32:16;44.03;;;21.40;;
40787;SDS011;26497;52.494;7.546;2023-02-15T12:34:45;36.40;;;19.27;;
40787;SDS011;26497;52.494;7.546;2023-02-15T12:37:17;37.17;;;20.88;;
40787;SDS011;26497;52.494;7.546;2023-02-15T12:39:51;32.35;;;18.13;;
40787;SDS011;26497;52.494;7.546;2023-02-15T12:42:22;37.40;;;20.17;;
40787;SDS011;26497;52.494;7.546;2023-02-15T12:44:54;32.25;;;19.27;;
40787;SDS011;26497;52.494;7.546;2023-02-15T12:47:25;38.03;;;20.67;;
40787;SDS011;26497;52.494;7.546;2023-02-15T12:50:10;39.45;;;19.80;;
40787;SDS011;26497;52.494;7.546;2023-02-15T12:52:47;43.78;;;18.48;;
40787;SDS011;26497;52.494;7.546;2023-02-15T12:55:20;36.75;;;19.08;;
40787;SDS011;26497;52.494;7.546;2023-02-15T12:58:04;32.40;;;19.23;;
40787;SDS011;26497;52.494;7.546;2023-02-15T13:00:33;34.75;;;19.23;;
40787;SDS011;26497;52.494;7.546;2023-02-15T13:03:01;35.15;;;19.00;;
40787;SDS011;26497;52.494;7.546;2023-02-15T13:05:33;32.40;;;18.38;;
40787;SDS011;26497;52.494;7.546;2023-02-15T13:08:09;46.33;;;21.20;;
40787;SDS011;26497;52.494;7.546;2023-02-15T13:10:40;38.75;;;21.17;;
40787;SDS011;26497;52.494;7.546;2023-02-15T13:13:19;40.58;;;20.00;;
40787;SDS011;26497;52.494;7.546;2023-02-15T13:15:50;40.95;;;20.90;;
40787;SDS011;26497;52.494;7.546;2023-02-15T13:18:23;36.40;;;19.55;;
40787;SDS011;26497;52.494;7.546;2023-02-15T13:20:58;37.00;;;20.38;;
40787;SDS011;26497;52.494;7.546;2023-02-15T13:23:37;32.83;;;18.70;;
40787;SDS011;26497;52.494;7.546;2023-02-15T13:26:09;37.85;;;18.83;;
40787;SDS011;26497;52.494;7.546;2023-02-15T13:28:44;36.00;;;20.13;;
40787;SDS011;26497;52.494;7.546;2023-02-15T13:33:44;38.08;;;19.70;;
40787;SDS011;26497;52.494;7.546;2023-02-15T13:36:18;39.72;;;19.45;;
40787;SDS011;26497;52.494;7.546;2023-02-15T13:38:59;42.42;;;21.02;;
40787;SDS011;26497;52.494;7.546;2023-02-15T13:41:39;37.47;;;19.83;;
40787;SDS011;26497;52.494;7.546;2023-02-15T13:44:24;40.22;;;19.73;;
40787;SDS011;26497;52.494;7.546;2023-02-15T13:47:17;38.40;;;21.75;;
40787;SDS011;26497;52.494;7.546;2023-02-15T13:50:01;39.35;;;21.17;;
40787;SDS011;26497;52.494;7.546;2023-02-15T13:52:44;41.95;;;21.75;;
40787;SDS011;26497;52.494;7.546;2023-02-15T13:58:23;43.83;;;19.67;;
40787;SDS011;26497;52.494;7.546;2023-02-15T14:01:27;40.35;;;20.65;;
40787;SDS011;26497;52.494;7.546;2023-02-15T14:04:13;46.60;;;20.53;;
40787;SDS011;26497;52.494;7.546;2023-02-15T14:07:08;48.90;;;21.50;;
40787;SDS011;26497;52.494;7.546;2023-02-15T14:10:21;42.88;;;20.30;;
40787;SDS011;26497;52.494;7.546;2023-02-15T14:13:28;41.83;;;21.75;;
40787;SDS011;26497;52.494;7.546;2023-02-15T14:16:20;43.70;;;22.90;;
40787;SDS011;26497;52.494;7.546;2023-02-15T14:18:59;48.33;;;21.55;;
40787;SDS011;26497;52.494;7.546;2023-02-15T14:21:42;43.33;;;20.80;;
40787;SDS011;26497;52.494;7.546;2023-02-15T14:24:23;43.33;;;20.65;;
40787;SDS011;26497;52.494;7.546;2023-02-15T14:26:59;39.50;;;20.20;;
40787;SDS011;26497;52.494;7.546;2023-02-15T14:29:47;40.85;;;18.95;;
40787;SDS011;26497;52.494;7.546;2023-02-15T14:32:21;39.88;;;20.63;;
40787;SDS011;26497;52.494;7.546;2023-02-15T14:34:57;35.63;;;18.70;;
40787;SDS011;26497;52.494;7.546;2023-02-15T14:37:30;39.65;;;20.35;;
40787;SDS011;26497;52.494;7.546;2023-02-15T14:40:11;44.78;;;21.48;;
40787;SDS011;26497;52.494;7.546;2023-02-15T14:43:11;42.92;;;21.40;;
40787;SDS011;26497;52.494;7.546;2023-02-15T14:45:53;42.63;;;20.77;;
40787;SDS011;26497;52.494;7.546;2023-02-15T14:48:25;40.45;;;22.80;;
40787;SDS011;26497;52.494;7.546;2023-02-15T14:50:59;55.15;;;22.60;;
40787;SDS011;26497;52.494;7.546;2023-02-15T14:53:33;38.00;;;20.75;;
40787;SDS011;26497;52.494;7.546;2023-02-15T14:58:54;47.75;;;23.52;;
40787;SDS011;26497;52.494;7.546;2023-02-15T15:01:41;45.58;;;22.08;;
40787;SDS011;26497;52.494;7.546;2023-02-15T15:04:22;46.47;;;22.65;;
40787;SDS011;26497;52.494;7.546;2023-02-15T15:06:57;45.72;;;22.25;;
40787;SDS011;26497;52.494;7.546;2023-02-15T15:09:31;50.83;;;23.38;;
40787;SDS011;26497;52.494;7.546;2023-02-15T15:15:09;50.72;;;22.52;;
40787;SDS011;26497;52.494;7.546;2023-02-15T15:17:53;46.45;;;23.67;;
40787;SDS011;26497;52.494;7.546;2023-02-15T15:20:43;45.13;;;23.25;;
40787;SDS011;26497;52.494;7.546;2023-02-15T15:26:21;53.08;;;25.05;;
40787;SDS011;26497;52.494;7.546;2023-02-15T15:28:55;50.90;;;23.13;;
40787;SDS011;26497;52.494;7.546;2023-02-15T15:31:32;47.65;;;23.17;;
40787;SDS011;26497;52.494;7.546;2023-02-15T15:37:46;47.85;;;24.23;;
40787;SDS011;26497;52.494;7.546;2023-02-15T15:40:42;48.28;;;22.45;;
40787;SDS011;26497;52.494;7.546;2023-02-15T15:47:00;51.20;;;24.75;;